createdAt,value
2019-05-06T00:01:15.064Z,91.50
2019-05-06T00:03:44.758Z,91.10
2019-05-06T00:06:14.615Z,90.90
2019-05-06T00:08:44.081Z,90.60
2019-05-06T00:11:14.231Z,90.90
2019-05-06T00:13:44.538Z,91.30
2019-05-06T00:16:14.507Z,91.20
2019-05-06T00:18:44.992Z,90.90
2019-05-06T00:21:14.879Z,90.70
2019-05-06T00:23:48.994Z,91.10
2019-05-06T00:26:34.003Z,90.70
2019-05-06T00:29:05.309Z,90.70
2019-05-06T00:31:36.045Z,90.70
2019-05-06T00:34:05.325Z,90.80
2019-05-06T00:36:34.851Z,90.60
2019-05-06T00:39:07.358Z,90.40
2019-05-06T00:41:37.138Z,90.80
2019-05-06T00:44:06.952Z,91.10
2019-05-06T00:46:36.657Z,90.20
2019-05-06T00:49:06.269Z,90.60
2019-05-06T00:51:35.985Z,90.20
2019-05-06T00:54:14.343Z,90.00
2019-05-06T00:56:44.772Z,90.40
2019-05-06T00:59:14.530Z,90.40
2019-05-06T01:01:44.342Z,90.30
2019-05-06T01:04:14.065Z,90.30
2019-05-06T01:06:44.151Z,90.00
2019-05-06T01:09:15.933Z,89.30
2019-05-06T01:11:47.581Z,89.60
2019-05-06T01:14:24.776Z,90.00
2019-05-06T01:16:54.766Z,90.00
2019-05-06T01:19:25.724Z,88.60
2019-05-06T01:21:56.461Z,88.80
2019-05-06T01:24:26.073Z,88.40
2019-05-06T01:26:56.405Z,88.10
2019-05-06T01:29:26.205Z,88.50
2019-05-06T01:31:56.119Z,88.00
2019-05-06T01:34:25.457Z,88.30
2019-05-06T01:36:55.333Z,88.70
2019-05-06T01:39:34.142Z,89.80
2019-05-06T01:42:13.739Z,90.20
2019-05-06T01:44:44.322Z,90.40
2019-05-06T01:47:14.647Z,89.70
2019-05-06T01:49:44.305Z,90.10
2019-05-06T01:52:14.662Z,90.10
2019-05-06T01:54:44.272Z,90.00
2019-05-06T01:57:14.007Z,90.00
2019-05-06T01:59:44.323Z,89.20
2019-05-06T02:02:14.458Z,89.60
2019-05-06T02:04:44.431Z,89.70
2019-05-06T02:07:14.812Z,90.00
2019-05-06T02:09:44.866Z,90.30
2019-05-06T02:12:14.622Z,90.00
2019-05-06T02:14:44.433Z,89.70
2019-05-06T02:17:14.369Z,89.90
2019-05-06T02:19:44.365Z,89.60
2019-05-06T02:22:15.633Z,89.50
2019-05-06T02:24:46.856Z,90.20
2019-05-06T02:27:16.564Z,90.00
2019-05-06T02:29:47.813Z,89.50
2019-05-06T02:32:31.781Z,89.80
2019-05-06T02:35:19.393Z,90.10
2019-05-06T02:37:48.851Z,89.70
2019-05-06T02:40:24.903Z,90.00
2019-05-06T02:42:55.313Z,89.30
2019-05-06T02:45:25.781Z,89.70
2019-05-06T02:48:06.376Z,89.90
2019-05-06T02:50:43.662Z,89.70
2019-05-06T02:53:13.500Z,89.80
2019-05-06T02:55:43.205Z,89.70
2019-05-06T02:58:14.825Z,89.80
2019-05-06T03:00:43.936Z,89.70
2019-05-06T03:03:14.308Z,89.70
2019-05-06T03:05:44.282Z,89.80
2019-05-06T03:08:14.704Z,89.20
2019-05-06T03:10:44.649Z,88.70
2019-05-06T03:13:14.464Z,88.50
2019-05-06T03:15:44.445Z,88.90
2019-05-06T03:18:14.750Z,89.40
2019-05-06T03:20:55.845Z,89.20
2019-05-06T03:23:43.708Z,89.00
2019-05-06T03:26:14.428Z,88.40
2019-05-06T03:28:44.323Z,89.00
2019-05-06T03:31:16.891Z,89.30
2019-05-06T03:33:59.692Z,88.80
2019-05-06T03:36:25.897Z,88.80
2019-05-06T03:38:49.113Z,88.80
2019-05-06T03:41:18.829Z,88.70
2019-05-06T03:43:48.231Z,88.80
2019-05-06T03:46:28.380Z,88.50
2019-05-06T03:49:08.402Z,89.00
2019-05-06T03:51:38.245Z,89.80
2019-05-06T03:54:07.981Z,89.70
2019-05-06T03:56:37.769Z,89.90
2019-05-06T03:59:07.371Z,89.80
2019-05-06T04:01:37.091Z,90.40
2019-05-06T04:04:06.734Z,90.20
2019-05-06T04:06:36.320Z,90.70
2019-05-06T04:09:05.917Z,90.40
2019-05-06T04:11:36.559Z,90.30
2019-05-06T04:14:06.966Z,90.30
2019-05-06T04:16:38.321Z,90.10
2019-05-06T04:19:23.562Z,90.30
2019-05-06T04:21:54.219Z,90.00
2019-05-06T04:24:33.679Z,90.40
2019-05-06T04:27:33.505Z,90.30
2019-05-06T04:30:04.651Z,90.00
2019-05-06T04:32:34.838Z,91.00
2019-05-06T04:35:04.836Z,90.80
2019-05-06T04:37:34.671Z,90.70
2019-05-06T04:40:05.911Z,90.30
2019-05-06T04:42:35.262Z,90.40
2019-05-06T04:45:05.442Z,90.80
2019-05-06T04:47:35.147Z,90.60
2019-05-06T04:50:06.781Z,90.90
2019-05-06T04:52:36.553Z,91.00
2019-05-06T04:55:06.228Z,90.90
2019-05-06T04:57:35.934Z,91.20
2019-05-06T05:00:06.567Z,91.10
2019-05-06T05:02:35.902Z,91.50
2019-05-06T05:05:06.193Z,91.30
2019-05-06T05:07:35.899Z,91.40
2019-05-06T05:10:12.357Z,91.70
2019-05-06T05:12:52.639Z,91.70
2019-05-06T05:15:23.756Z,92.10
2019-05-06T05:17:55.013Z,92.10
2019-05-06T05:20:36.832Z,92.60
2019-05-06T05:22:55.406Z,91.80
2019-05-06T05:25:25.185Z,92.10
2019-05-06T05:27:54.885Z,91.70
2019-05-06T05:30:25.545Z,92.20
2019-05-06T05:32:55.336Z,92.70
2019-05-06T05:35:25.133Z,92.10
2019-05-06T05:37:54.314Z,92.60
2019-05-06T05:40:24.258Z,92.20
2019-05-06T05:42:55.701Z,92.80
2019-05-06T05:45:25.313Z,92.50
2019-05-06T05:47:56.756Z,92.80
2019-05-06T05:50:28.001Z,92.30
2019-05-06T05:52:57.718Z,92.80
2019-05-06T05:55:27.221Z,92.90
2019-05-06T05:57:57.033Z,93.00
2019-05-06T06:00:28.487Z,93.60
2019-05-06T06:02:57.834Z,94.00
2019-05-06T06:05:27.502Z,94.00
2019-05-06T06:07:57.222Z,93.50
2019-05-06T06:10:34.490Z,93.70
2019-05-06T06:13:04.445Z,94.10
2019-05-06T06:15:42.353Z,94.40
2019-05-06T06:18:22.977Z,94.50
2019-05-06T06:21:18.798Z,94.70
2019-05-06T06:23:43.485Z,94.70
2019-05-06T06:26:13.115Z,94.40
2019-05-06T06:28:42.811Z,94.70
2019-05-06T06:31:23.200Z,94.80
2019-05-06T06:33:55.552Z,95.10
2019-05-06T06:36:27.067Z,95.70
2019-05-06T06:39:04.481Z,95.70
2019-05-06T06:41:35.533Z,95.80
2019-05-06T06:44:13.286Z,95.80
2019-05-06T06:46:43.241Z,95.50
2019-05-06T06:49:13.054Z,96.10
2019-05-06T06:51:42.640Z,95.80
2019-05-06T06:54:12.476Z,95.70
2019-05-06T06:56:46.690Z,95.50
2019-05-06T06:59:26.621Z,95.90
2019-05-06T07:02:08.463Z,96.20
2019-05-06T07:04:43.180Z,96.10
2019-05-06T07:07:14.045Z,95.90
2019-05-06T07:09:43.813Z,95.40
2019-05-06T07:12:13.377Z,96.10
2019-05-06T07:14:43.124Z,95.60
2019-05-06T07:17:13.332Z,95.80
2019-05-06T07:19:44.906Z,95.40
2019-05-06T07:22:24.950Z,95.30
2019-05-06T07:24:54.579Z,95.60
2019-05-06T07:27:26.861Z,95.40
2019-05-06T07:29:56.213Z,95.50
2019-05-06T07:32:25.842Z,95.50
2019-05-06T07:34:55.654Z,95.90
2019-05-06T07:37:25.360Z,95.40
2019-05-06T07:39:55.653Z,95.70
2019-05-06T07:42:26.676Z,95.40
2019-05-06T07:45:06.570Z,95.10
2019-05-06T07:47:37.215Z,95.40
2019-05-06T07:50:07.334Z,96.10
2019-05-06T07:52:37.158Z,95.70
2019-05-06T07:55:06.949Z,95.80
2019-05-06T07:57:36.668Z,96.10
2019-05-06T08:00:06.369Z,95.80
2019-05-06T08:02:36.085Z,95.80
2019-05-06T08:05:07.665Z,95.20
2019-05-06T08:07:37.445Z,96.00
2019-05-06T08:10:06.796Z,96.40
2019-05-06T08:12:36.039Z,96.40
2019-05-06T08:15:07.439Z,96.20
2019-05-06T08:17:38.367Z,96.20
2019-05-06T08:20:08.769Z,96.40
2019-05-06T08:22:48.806Z,96.60
2019-05-06T08:25:18.233Z,96.60
2019-05-06T08:27:49.472Z,96.30
2019-05-06T08:30:20.302Z,96.50
2019-05-06T08:32:50.025Z,96.50
2019-05-06T08:35:19.833Z,96.40
2019-05-06T08:37:49.952Z,96.90
2019-05-06T08:40:19.766Z,96.90
2019-05-06T08:42:49.985Z,96.70
2019-05-06T08:45:21.944Z,96.50
2019-05-06T08:47:52.345Z,96.60
2019-05-06T08:50:32.610Z,96.90
2019-05-06T08:53:10.146Z,96.20
2019-05-06T08:55:42.910Z,96.10
2019-05-06T08:58:13.947Z,96.00
2019-05-06T09:00:53.200Z,95.90
2019-05-06T09:03:22.932Z,96.20
2019-05-06T09:05:55.774Z,96.30
2019-05-06T09:08:25.478Z,96.40
2019-05-06T09:10:55.216Z,96.10
2019-05-06T09:13:24.584Z,95.60
2019-05-06T09:15:54.405Z,95.30
2019-05-06T09:18:24.207Z,95.30
2019-05-06T09:20:55.059Z,94.30
2019-05-06T09:23:27.570Z,94.90
2019-05-06T09:25:56.422Z,94.50
2019-05-06T09:28:33.765Z,95.30
2019-05-06T09:31:20.106Z,95.40
2019-05-06T09:33:57.614Z,95.80
2019-05-06T09:36:40.023Z,95.40
2019-05-06T09:38:58.298Z,95.40
2019-05-06T09:41:28.082Z,95.70
2019-05-06T09:43:57.890Z,96.20
2019-05-06T09:46:27.231Z,95.40
2019-05-06T09:49:12.791Z,94.80
2019-05-06T09:51:42.539Z,94.70
2019-05-06T09:54:16.994Z,94.70
2019-05-06T09:56:57.564Z,94.40
2019-05-06T09:59:27.165Z,94.80
2019-05-06T10:01:56.874Z,95.20
2019-05-06T10:04:26.681Z,95.90
2019-05-06T10:06:59.976Z,95.80
2019-05-06T10:09:27.947Z,94.90
2019-05-06T10:11:57.771Z,95.30
2019-05-06T10:14:27.575Z,94.90
2019-05-06T10:16:57.386Z,95.10
2019-05-06T10:19:27.101Z,94.80
2019-05-06T10:21:56.809Z,94.80
2019-05-06T10:24:26.521Z,94.20
2019-05-06T10:26:57.765Z,94.00
2019-05-06T10:29:46.696Z,94.40
2019-05-06T10:32:17.980Z,94.90
2019-05-06T10:34:47.895Z,94.70
2019-05-06T10:37:27.746Z,95.10
2019-05-06T10:40:03.272Z,94.60
2019-05-06T10:42:42.896Z,94.30
2019-05-06T10:45:29.633Z,94.10
2019-05-06T10:47:59.719Z,94.10
2019-05-06T10:50:31.198Z,93.90
2019-05-06T10:53:13.563Z,94.40
2019-05-06T10:55:53.830Z,94.30
2019-05-06T10:58:23.716Z,93.80
2019-05-06T11:00:54.748Z,94.00
2019-05-06T11:03:27.596Z,93.40
2019-05-06T11:05:57.210Z,93.30
2019-05-06T11:08:26.429Z,93.60
2019-05-06T11:11:11.581Z,93.50
2019-05-06T11:13:28.500Z,93.50
2019-05-06T11:15:58.217Z,93.70
2019-05-06T11:18:27.920Z,93.90
2019-05-06T11:20:57.246Z,93.20
2019-05-06T11:23:27.161Z,93.80
2019-05-06T11:25:56.523Z,92.90
2019-05-06T11:28:46.212Z,92.80
2019-05-06T11:31:23.675Z,92.50
2019-05-06T11:34:04.022Z,92.50
2019-05-06T11:36:42.612Z,93.20
2019-05-06T11:39:14.236Z,94.20
2019-05-06T11:42:01.076Z,93.30
2019-05-06T11:44:15.500Z,93.00
2019-05-06T11:46:45.309Z,92.80
2019-05-06T11:49:15.122Z,92.70
2019-05-06T11:51:44.496Z,92.60
2019-05-06T11:54:19.391Z,92.70
2019-05-06T11:56:51.313Z,92.80
2019-05-06T11:59:18.460Z,93.10
2019-05-06T12:01:55.860Z,93.20
2019-05-06T12:04:25.566Z,93.00
2019-05-06T12:07:09.174Z,93.40
2019-05-06T12:09:27.545Z,92.00
2019-05-06T12:11:57.462Z,92.50
2019-05-06T12:14:27.177Z,92.20
2019-05-06T12:16:56.988Z,92.60
2019-05-06T12:19:26.702Z,92.40
2019-05-06T12:21:56.501Z,92.30
2019-05-06T12:24:26.015Z,92.90
2019-05-06T12:26:56.526Z,92.90
2019-05-06T12:29:26.249Z,92.90
2019-05-06T12:32:06.311Z,92.60
2019-05-06T12:34:36.130Z,92.60
2019-05-06T12:37:07.615Z,92.10
2019-05-06T12:39:39.958Z,91.60
2019-05-06T12:42:13.949Z,91.30
2019-05-06T12:44:44.380Z,90.80
2019-05-06T12:47:32.933Z,91.80
2019-05-06T12:50:04.889Z,91.70
2019-05-06T12:52:34.502Z,91.60
2019-05-06T12:55:16.930Z,91.00
2019-05-06T12:57:37.297Z,90.90
2019-05-06T13:00:07.623Z,90.50
2019-05-06T13:02:37.119Z,90.20
2019-05-06T13:05:07.337Z,90.80
2019-05-06T13:07:38.697Z,90.50
2019-05-06T13:10:08.507Z,90.10
2019-05-06T13:12:42.248Z,90.60
2019-05-06T13:15:13.176Z,91.00
2019-05-06T13:17:42.875Z,90.70
2019-05-06T13:20:14.707Z,90.90
2019-05-06T13:22:45.659Z,90.80
2019-05-06T13:25:15.483Z,88.80
2019-05-06T13:27:45.908Z,88.90
2019-05-06T13:30:16.021Z,87.30
2019-05-06T13:32:51.965Z,88.90
2019-05-06T13:35:23.086Z,90.10
2019-05-06T13:37:52.931Z,91.00
2019-05-06T13:40:23.107Z,90.00
2019-05-06T13:43:13.552Z,89.80
2019-05-06T13:45:52.610Z,90.20
2019-05-06T13:48:29.185Z,89.40
2019-05-06T13:51:03.522Z,90.10
2019-05-06T13:53:39.746Z,89.60
2019-05-06T13:56:04.793Z,88.70
2019-05-06T13:58:34.446Z,89.20
2019-05-06T14:01:05.790Z,87.90
2019-05-06T14:03:35.165Z,87.30
2019-05-06T14:06:05.005Z,88.50
2019-05-06T14:08:34.710Z,87.00
2019-05-06T14:11:04.346Z,85.60
2019-05-06T14:13:34.129Z,87.50
2019-05-06T14:16:04.099Z,88.10
2019-05-06T14:18:37.627Z,88.00
2019-05-06T14:21:06.342Z,87.90
2019-05-06T14:23:36.045Z,88.50
2019-05-06T14:26:07.294Z,86.40
2019-05-06T14:28:38.532Z,87.50
2019-05-06T14:31:25.298Z,88.30
2019-05-06T14:33:53.417Z,88.30
2019-05-06T14:36:23.244Z,88.10
2019-05-06T14:38:53.459Z,87.50
2019-05-06T14:41:27.313Z,87.20
2019-05-06T14:43:56.570Z,87.90
2019-05-06T14:46:27.904Z,88.10
2019-05-06T14:48:57.257Z,88.60
2019-05-06T14:51:27.022Z,90.20
2019-05-06T14:53:56.835Z,89.70
2019-05-06T14:56:32.035Z,88.50
2019-05-06T14:59:05.692Z,88.00
2019-05-06T15:01:36.310Z,86.90
2019-05-06T15:04:06.160Z,88.30
2019-05-06T15:06:35.991Z,88.50
2019-05-06T15:09:07.326Z,88.00
2019-05-06T15:11:37.095Z,88.30
2019-05-06T15:14:06.907Z,89.20
2019-05-06T15:16:36.723Z,89.40
2019-05-06T15:19:06.540Z,88.00
2019-05-06T15:21:38.654Z,86.80
2019-05-06T15:24:07.587Z,85.70
2019-05-06T15:26:37.297Z,84.70
2019-05-06T15:29:07.010Z,87.20
2019-05-06T15:31:45.705Z,87.20
2019-05-06T15:34:22.297Z,87.70
2019-05-06T15:36:53.445Z,85.80
2019-05-06T15:39:23.659Z,86.70
2019-05-06T15:41:53.475Z,85.90
2019-05-06T15:44:23.434Z,86.70
2019-05-06T15:46:52.894Z,87.10
2019-05-06T15:49:22.417Z,85.10
2019-05-06T15:51:52.513Z,85.60
2019-05-06T15:54:23.268Z,84.40
2019-05-06T15:56:53.387Z,82.70
2019-05-06T15:59:23.398Z,84.50
2019-05-06T16:01:53.349Z,83.50
2019-05-06T16:04:24.154Z,86.30
2019-05-06T16:06:53.853Z,85.80
2019-05-06T16:09:23.620Z,84.60
2019-05-06T16:11:53.636Z,86.80
2019-05-06T16:14:35.359Z,85.00
2019-05-06T16:17:04.988Z,85.60
2019-05-06T16:19:34.795Z,86.20
2019-05-06T16:22:04.341Z,84.10
2019-05-06T16:24:55.313Z,84.70
2019-05-06T16:27:25.120Z,83.90
2019-05-06T16:29:54.936Z,84.60
2019-05-06T16:32:24.749Z,84.60
2019-05-06T16:34:54.162Z,86.20
2019-05-06T16:37:23.757Z,85.20
2019-05-06T16:39:54.630Z,84.40
2019-05-06T16:42:24.717Z,83.90
2019-05-06T16:44:54.431Z,84.80
2019-05-06T16:47:37.046Z,84.20
2019-05-06T16:50:09.445Z,83.50
2019-05-06T16:52:39.175Z,82.60
2019-05-06T16:55:11.889Z,83.70
2019-05-06T16:57:43.350Z,81.30
2019-05-06T17:00:15.705Z,81.60
2019-05-06T17:03:00.187Z,82.20
2019-05-06T17:05:37.570Z,83.80
2019-05-06T17:08:07.292Z,82.40
2019-05-06T17:10:40.130Z,81.60
2019-05-06T17:13:08.271Z,82.40
2019-05-06T17:15:37.945Z,82.70
2019-05-06T17:18:07.763Z,81.80
2019-05-06T17:20:38.506Z,82.40
2019-05-06T17:23:07.890Z,82.90
2019-05-06T17:25:37.502Z,85.20
2019-05-06T17:28:14.696Z,83.30
2019-05-06T17:30:51.107Z,83.50
2019-05-06T17:33:34.394Z,83.10
2019-05-06T17:36:06.646Z,83.10
2019-05-06T17:38:46.818Z,83.60
2019-05-06T17:41:16.526Z,84.00
2019-05-06T17:43:46.333Z,83.40
2019-05-06T17:46:17.782Z,84.00
2019-05-06T17:48:49.135Z,83.70
2019-05-06T17:51:23.202Z,84.50
2019-05-06T17:53:54.498Z,85.10
2019-05-06T17:56:23.977Z,85.70
2019-05-06T17:58:54.365Z,83.60
2019-05-06T18:01:37.543Z,84.10
2019-05-06T18:04:07.287Z,85.90
2019-05-06T18:06:37.395Z,83.60
2019-05-06T18:09:08.702Z,84.50
2019-05-06T18:11:42.230Z,84.30
2019-05-06T18:14:12.454Z,85.00
2019-05-06T18:16:42.867Z,82.90
2019-05-06T18:19:12.760Z,84.30
2019-05-06T18:21:42.211Z,83.80
2019-05-06T18:24:13.072Z,84.00
2019-05-06T18:26:42.843Z,83.80
2019-05-06T18:29:12.690Z,84.10
2019-05-06T18:31:42.835Z,84.00
2019-05-06T18:34:13.647Z,84.60
2019-05-06T18:36:44.526Z,84.40
2019-05-06T18:39:16.288Z,83.90
2019-05-06T18:41:47.060Z,84.70
2019-05-06T18:44:17.990Z,84.40
2019-05-06T18:46:48.335Z,85.30
2019-05-06T18:49:19.097Z,84.70
2019-05-06T18:51:52.023Z,83.90
2019-05-06T18:54:22.168Z,83.60
2019-05-06T18:56:52.770Z,85.10
2019-05-06T18:59:23.094Z,84.70
2019-05-06T19:01:54.568Z,84.80
2019-05-06T19:04:26.017Z,85.30
2019-05-06T19:07:09.249Z,84.40
2019-05-06T19:09:32.596Z,85.80
2019-05-06T19:12:03.552Z,85.50
2019-05-06T19:14:34.630Z,85.00
2019-05-06T19:17:04.596Z,85.20
2019-05-06T19:19:35.081Z,85.20
2019-05-06T19:22:05.178Z,85.30
2019-05-06T19:24:36.206Z,85.00
2019-05-06T19:27:05.700Z,85.80
2019-05-06T19:29:35.137Z,84.50
2019-05-06T19:32:05.124Z,85.00
2019-05-06T19:34:35.363Z,85.40
2019-05-06T19:37:05.246Z,86.10
2019-05-06T19:39:36.018Z,85.90
2019-05-06T19:42:06.297Z,86.20
2019-05-06T19:44:36.007Z,86.40
2019-05-06T19:47:05.771Z,85.50
2019-05-06T19:49:35.537Z,85.20
2019-05-06T19:52:06.658Z,85.80
2019-05-06T19:54:37.680Z,85.30
2019-05-06T19:57:07.425Z,85.50
2019-05-06T19:59:37.237Z,85.00
2019-05-06T20:02:07.153Z,85.00
2019-05-06T20:04:37.840Z,85.80
2019-05-06T20:07:15.381Z,85.20
2019-05-06T20:09:55.949Z,86.00
2019-05-06T20:12:32.632Z,86.50
2019-05-06T20:15:19.631Z,86.10
2019-05-06T20:17:49.118Z,86.50
2019-05-06T20:20:18.960Z,86.60
2019-05-06T20:22:48.652Z,85.50
2019-05-06T20:25:18.146Z,85.50
2019-05-06T20:27:47.874Z,86.10
2019-05-06T20:30:17.887Z,86.20
2019-05-06T20:32:47.173Z,85.80
2019-05-06T20:35:17.011Z,85.70
2019-05-06T20:37:46.719Z,84.80
2019-05-06T20:40:16.562Z,85.40
2019-05-06T20:42:46.552Z,85.90
2019-05-06T20:45:17.613Z,86.60
2019-05-06T20:47:48.825Z,86.00
2019-05-06T20:50:19.885Z,87.20
2019-05-06T20:52:53.312Z,86.70
2019-05-06T20:55:23.358Z,86.80
2019-05-06T20:57:54.693Z,86.40
2019-05-06T21:00:24.452Z,87.00
2019-05-06T21:02:54.437Z,86.50
2019-05-06T21:05:26.482Z,86.50
2019-05-06T21:07:57.177Z,86.60
2019-05-06T21:10:28.944Z,85.80
2019-05-06T21:12:59.070Z,86.40
2019-05-06T21:15:28.701Z,85.50
2019-05-06T21:18:01.583Z,86.50
2019-05-06T21:20:33.006Z,85.40
2019-05-06T21:23:03.352Z,85.00
2019-05-06T21:25:32.871Z,85.10
2019-05-06T21:28:03.064Z,84.80
2019-05-06T21:30:33.869Z,85.40
2019-05-06T21:33:03.592Z,84.60
2019-05-06T21:35:33.393Z,84.30
2019-05-06T21:38:02.854Z,84.70
2019-05-06T21:40:32.543Z,84.70
2019-05-06T21:43:02.527Z,84.80
2019-05-06T21:45:33.178Z,86.60
2019-05-06T21:48:04.126Z,85.60
2019-05-06T21:50:33.549Z,85.40
2019-05-06T21:53:03.522Z,85.60
2019-05-06T21:55:33.116Z,85.60
2019-05-06T21:58:02.730Z,85.40
2019-05-06T22:00:52.573Z,85.70
2019-05-06T22:03:22.962Z,84.80
2019-05-06T22:05:54.708Z,84.30
2019-05-06T22:08:24.206Z,83.80
2019-05-06T22:10:53.814Z,84.90
2019-05-06T22:13:23.512Z,84.00
2019-05-06T22:15:53.230Z,85.30
2019-05-06T22:18:23.007Z,86.50
2019-05-06T22:21:06.170Z,85.10
2019-05-06T22:23:52.466Z,85.10
2019-05-06T22:26:23.173Z,84.20
2019-05-06T22:28:52.955Z,84.50
2019-05-06T22:31:24.385Z,84.10
2019-05-06T22:33:54.482Z,84.10
2019-05-06T22:36:23.896Z,83.30
2019-05-06T22:38:53.593Z,83.00
2019-05-06T22:41:25.486Z,83.30
2019-05-06T22:43:54.281Z,82.20
2019-05-06T22:46:23.950Z,83.00
2019-05-06T22:48:54.482Z,83.10
2019-05-06T22:51:24.797Z,82.80
2019-05-06T22:53:54.614Z,82.80
2019-05-06T22:56:23.999Z,82.40
2019-05-06T22:58:53.830Z,81.90
2019-05-06T23:01:32.532Z,82.00
2019-05-06T23:04:02.784Z,82.60
2019-05-06T23:06:33.024Z,83.00
2019-05-06T23:09:02.717Z,82.70
2019-05-06T23:11:33.538Z,82.30
2019-05-06T23:14:03.139Z,81.50
2019-05-06T23:16:34.890Z,81.90
2019-05-06T23:19:03.912Z,81.90
2019-05-06T23:21:33.840Z,81.10
2019-05-06T23:24:03.420Z,81.30
2019-05-06T23:26:33.018Z,81.00
2019-05-06T23:29:02.580Z,81.20
2019-05-06T23:31:33.210Z,81.40
2019-05-06T23:34:04.992Z,80.40
2019-05-06T23:36:58.638Z,80.70
2019-05-06T23:40:12.729Z,80.30
2019-05-06T23:43:18.894Z,79.90
2019-05-06T23:46:25.059Z,80.80
2019-05-06T23:49:32.646Z,80.30
2019-05-06T23:52:38.092Z,79.70
2019-05-06T23:55:44.238Z,80.20
2019-05-06T23:58:14.653Z,80.20
